createdAt,value
2022-12-22T00:02:20.200Z,14.50
2022-12-22T00:05:04.687Z,15.40
2022-12-22T00:07:49.625Z,15.70
2022-12-22T00:10:32.060Z,15.50
2022-12-22T00:13:14.332Z,15.40
2022-12-22T00:15:56.646Z,15.40
2022-12-22T00:18:39.052Z,15.40
2022-12-22T00:21:21.596Z,15.40
2022-12-22T00:24:06.483Z,15.40
2022-12-22T00:26:49.360Z,14.20
2022-12-22T00:29:31.998Z,15.20
2022-12-22T00:32:14.403Z,15.40
2022-12-22T00:34:57.964Z,15.50
2022-12-22T00:37:45.003Z,16.40
2022-12-22T00:40:37.302Z,15.50
2022-12-22T00:43:19.602Z,13.90
2022-12-22T00:46:02.237Z,13.50
2022-12-22T00:48:44.806Z,14.00
2022-12-22T00:51:27.912Z,13.40
2022-12-22T00:54:10.702Z,14.90
2022-12-22T00:56:55.647Z,14.70
2022-12-22T00:59:37.901Z,15.50
2022-12-22T01:02:20.328Z,15.20
2022-12-22T01:05:06.509Z,15.60
2022-12-22T01:07:49.025Z,16.70
2022-12-22T01:10:31.791Z,17.60
2022-12-22T01:13:16.915Z,16.90
2022-12-22T01:15:59.299Z,16.50
2022-12-22T01:18:41.644Z,16.80
2022-12-22T01:21:25.568Z,16.80
2022-12-22T01:24:07.885Z,16.80
2022-12-22T01:26:50.139Z,17.50
2022-12-22T01:29:35.020Z,17.30
2022-12-22T01:32:17.123Z,17.50
2022-12-22T01:34:59.472Z,17.50
2022-12-22T01:37:42.002Z,17.90
2022-12-22T01:40:30.183Z,19.20
2022-12-22T01:43:12.461Z,22.10
2022-12-22T01:45:57.487Z,24.00
2022-12-22T01:48:43.933Z,26.80
2022-12-22T01:51:29.347Z,28.20
2022-12-22T01:54:13.264Z,29.90
2022-12-22T01:56:56.061Z,29.70
2022-12-22T01:59:38.464Z,31.50
2022-12-22T02:02:26.273Z,30.80
2022-12-22T02:05:10.729Z,32.20
2022-12-22T02:08:11.037Z,32.30
2022-12-22T02:11:08.185Z,34.10
2022-12-22T02:14:01.301Z,33.40
2022-12-22T02:16:52.948Z,31.60
2022-12-22T02:20:04.625Z,31.70
2022-12-22T02:22:58.402Z,31.00
2022-12-22T02:25:47.183Z,30.30
2022-12-22T02:28:32.179Z,29.90
2022-12-22T02:31:14.611Z,29.70
2022-12-22T02:33:56.945Z,29.50
2022-12-22T02:36:49.195Z,28.90
2022-12-22T02:39:43.234Z,27.20
2022-12-22T02:42:34.196Z,27.30
2022-12-22T02:45:30.391Z,28.20
2022-12-22T02:48:19.185Z,28.30
2022-12-22T02:51:05.796Z,28.30
2022-12-22T02:53:48.639Z,28.00
2022-12-22T02:56:31.366Z,27.50
2022-12-22T02:59:13.654Z,27.10
2022-12-22T03:02:01.396Z,27.40
2022-12-22T03:04:43.796Z,27.60
2022-12-22T03:07:26.116Z,28.10
2022-12-22T03:10:08.447Z,27.30
2022-12-22T03:12:50.777Z,27.00
2022-12-22T03:15:33.238Z,26.70
2022-12-22T03:18:22.244Z,28.70
2022-12-22T03:21:04.734Z,27.80
2022-12-22T03:23:47.027Z,27.10
2022-12-22T03:26:16.871Z,28.60
2022-12-22T03:28:46.651Z,28.60
2022-12-22T03:31:16.432Z,29.40
2022-12-22T03:33:48.760Z,29.30
2022-12-22T03:36:18.748Z,29.30
2022-12-22T03:38:48.538Z,29.20
2022-12-22T03:41:30.615Z,29.10
2022-12-22T03:44:12.856Z,29.30
2022-12-22T03:46:42.688Z,29.40
2022-12-22T03:49:15.089Z,29.40
2022-12-22T03:51:47.553Z,29.40
2022-12-22T03:54:19.886Z,29.30
2022-12-22T03:56:50.018Z,29.40
2022-12-22T03:59:20.606Z,29.30
2022-12-22T04:01:52.394Z,29.90
2022-12-22T04:04:27.423Z,30.00
2022-12-22T04:06:57.506Z,29.40
2022-12-22T04:09:27.744Z,28.10
2022-12-22T04:12:10.084Z,28.10
2022-12-22T04:14:39.886Z,28.10
2022-12-22T04:17:10.332Z,28.10
2022-12-22T04:19:42.683Z,26.20
2022-12-22T04:22:12.470Z,26.10
2022-12-22T04:24:42.228Z,26.70
2022-12-22T04:27:11.985Z,25.60
2022-12-22T04:29:41.767Z,23.70
2022-12-22T04:32:11.621Z,22.20
2022-12-22T04:34:44.025Z,22.20
2022-12-22T04:37:17.590Z,24.50
2022-12-22T04:39:47.821Z,24.30
2022-12-22T04:42:17.667Z,25.40
2022-12-22T04:44:47.437Z,26.80
2022-12-22T04:47:17.282Z,28.80
2022-12-22T04:49:49.684Z,30.60
2022-12-22T04:52:19.475Z,31.20
2022-12-22T04:54:49.328Z,32.20
2022-12-22T04:57:19.129Z,33.30
2022-12-22T04:59:48.856Z,35.10
2022-12-22T05:02:18.680Z,36.20
2022-12-22T05:04:51.043Z,37.60
2022-12-22T05:07:20.967Z,39.10
2022-12-22T05:09:50.699Z,39.80
2022-12-22T05:12:32.971Z,40.90
2022-12-22T05:15:02.785Z,41.50
2022-12-22T05:17:33.126Z,41.80
2022-12-22T05:20:05.489Z,41.60
2022-12-22T05:22:35.281Z,41.80
2022-12-22T05:25:05.076Z,40.50
2022-12-22T05:27:37.550Z,39.40
2022-12-22T05:30:08.960Z,37.50
2022-12-22T05:32:39.079Z,35.00
2022-12-22T05:35:12.228Z,34.20
2022-12-22T05:37:42.066Z,33.90
2022-12-22T05:40:14.091Z,33.60
2022-12-22T05:42:43.944Z,33.60
2022-12-22T05:45:16.604Z,32.50
2022-12-22T05:47:47.369Z,30.70
2022-12-22T05:50:22.268Z,29.30
2022-12-22T05:52:52.538Z,28.40
2022-12-22T05:55:22.419Z,27.80
2022-12-22T05:57:52.249Z,28.10
2022-12-22T06:00:23.391Z,26.60
2022-12-22T06:02:53.276Z,26.30
2022-12-22T06:05:26.326Z,26.10
2022-12-22T06:07:56.133Z,28.20
2022-12-22T06:10:26.488Z,27.60
2022-12-22T06:12:56.226Z,28.50
2022-12-22T06:15:26.040Z,29.40
2022-12-22T06:17:56.059Z,29.40
2022-12-22T06:20:28.384Z,30.40
2022-12-22T06:22:58.140Z,30.00
2022-12-22T06:25:27.964Z,29.30
2022-12-22T06:27:57.777Z,29.40
2022-12-22T06:30:33.174Z,31.00
2022-12-22T06:33:03.786Z,30.50
2022-12-22T06:35:36.172Z,31.20
2022-12-22T06:38:08.062Z,29.70
2022-12-22T06:40:37.847Z,28.90
2022-12-22T06:43:11.157Z,27.40
2022-12-22T06:45:42.692Z,25.50
2022-12-22T06:48:14.293Z,23.70
2022-12-22T06:50:46.728Z,22.10
2022-12-22T06:53:16.633Z,21.20
2022-12-22T06:55:46.531Z,20.80
2022-12-22T06:58:16.332Z,20.50
2022-12-22T07:00:48.577Z,20.70
2022-12-22T07:03:19.191Z,19.90
2022-12-22T07:05:51.681Z,18.60
2022-12-22T07:08:21.485Z,18.00
2022-12-22T07:11:02.203Z,18.10
2022-12-22T07:13:34.612Z,17.30
2022-12-22T07:16:05.467Z,15.90
2022-12-22T07:18:37.404Z,15.30
2022-12-22T07:21:11.838Z,15.30
2022-12-22T07:23:42.542Z,15.40
2022-12-22T07:26:13.365Z,15.40
2022-12-22T07:28:44.603Z,16.00
2022-12-22T07:31:15.299Z,15.80
2022-12-22T07:33:45.127Z,16.40
2022-12-22T07:36:19.332Z,16.80
2022-12-22T07:38:51.223Z,16.90
2022-12-22T07:41:35.107Z,15.60
2022-12-22T07:44:05.758Z,15.20
2022-12-22T07:46:39.162Z,14.80
2022-12-22T07:49:22.673Z,13.10
2022-12-22T07:51:55.670Z,12.70
2022-12-22T07:54:25.472Z,12.70
2022-12-22T07:56:55.753Z,12.40
2022-12-22T07:59:25.570Z,11.70
2022-12-22T08:01:55.492Z,12.40
2022-12-22T08:04:25.412Z,12.30
2022-12-22T08:06:57.793Z,11.10
2022-12-22T08:09:27.561Z,10.50
2022-12-22T08:11:57.371Z,10.30
2022-12-22T08:14:29.437Z,11.40
2022-12-22T08:16:59.244Z,10.90
2022-12-22T08:19:29.494Z,10.00
2022-12-22T08:22:02.423Z,9.90
2022-12-22T08:24:32.505Z,9.80
2022-12-22T08:27:06.439Z,8.20
2022-12-22T08:29:39.815Z,8.30
2022-12-22T08:32:09.832Z,9.00
2022-12-22T08:34:39.753Z,10.50
2022-12-22T08:37:17.900Z,10.40
2022-12-22T08:39:51.206Z,11.70
2022-12-22T08:42:22.928Z,12.80
2022-12-22T08:44:53.764Z,11.30
2022-12-22T08:47:24.917Z,11.70
2022-12-22T08:49:54.694Z,12.80
2022-12-22T08:52:27.018Z,12.70
2022-12-22T08:54:56.865Z,13.10
2022-12-22T08:57:26.633Z,12.30
2022-12-22T08:59:56.460Z,11.70
2022-12-22T09:02:26.461Z,11.20
2022-12-22T09:04:56.461Z,11.20
2022-12-22T09:07:29.326Z,10.90
2022-12-22T09:09:59.476Z,10.50
2022-12-22T09:12:29.271Z,10.40
2022-12-22T09:14:59.121Z,10.20
2022-12-22T09:17:29.027Z,8.80
2022-12-22T09:19:58.883Z,8.30
2022-12-22T09:22:31.350Z,7.70
2022-12-22T09:25:01.115Z,7.60
2022-12-22T09:27:32.627Z,5.90
2022-12-22T09:30:02.449Z,8.40
2022-12-22T09:32:32.188Z,10.40
2022-12-22T09:35:01.957Z,11.40
2022-12-22T09:37:34.328Z,11.50
2022-12-22T09:40:04.205Z,11.70
2022-12-22T09:42:37.582Z,11.50
2022-12-22T09:45:12.425Z,11.90
2022-12-22T09:47:46.568Z,11.90
2022-12-22T09:50:23.283Z,11.90
2022-12-22T09:52:58.032Z,12.00
2022-12-22T09:55:41.913Z,13.20
2022-12-22T09:58:26.831Z,13.10
2022-12-22T10:01:03.410Z,14.60
2022-12-22T10:03:46.091Z,15.40
2022-12-22T10:06:22.889Z,15.50
2022-12-22T10:08:57.465Z,16.00
2022-12-22T10:11:27.686Z,16.90
2022-12-22T10:13:57.452Z,17.80
2022-12-22T10:16:29.539Z,18.30
2022-12-22T10:19:10.625Z,17.60
2022-12-22T10:21:46.711Z,19.30
2022-12-22T10:24:32.264Z,20.10
2022-12-22T10:27:04.418Z,21.90
2022-12-22T10:29:36.917Z,22.30
2022-12-22T10:32:14.247Z,23.40
2022-12-22T10:35:02.258Z,24.60
2022-12-22T10:37:38.245Z,24.90
2022-12-22T10:40:22.608Z,25.00
2022-12-22T10:42:56.324Z,25.20
2022-12-22T10:45:29.611Z,25.60
2022-12-22T10:48:00.627Z,26.20
2022-12-22T10:50:30.526Z,26.70
2022-12-22T10:53:03.403Z,25.50
2022-12-22T10:55:36.219Z,25.80
2022-12-22T10:58:21.409Z,26.40
2022-12-22T11:01:04.458Z,26.00
2022-12-22T11:03:35.264Z,26.30
2022-12-22T11:06:05.151Z,26.20
2022-12-22T11:08:37.640Z,25.80
2022-12-22T11:11:17.071Z,26.10
2022-12-22T11:13:55.924Z,25.30
2022-12-22T11:16:32.407Z,24.80
2022-12-22T11:19:13.342Z,24.40
2022-12-22T11:21:48.057Z,22.50
2022-12-22T11:24:24.201Z,21.20
2022-12-22T11:27:06.621Z,21.60
2022-12-22T11:30:14.741Z,21.20
2022-12-22T11:33:10.641Z,19.90
2022-12-22T11:35:53.760Z,18.50
2022-12-22T11:38:34.384Z,17.10
2022-12-22T11:41:13.215Z,14.80
2022-12-22T11:44:02.191Z,12.80
2022-12-22T11:46:37.812Z,12.00
2022-12-22T11:49:38.875Z,8.80
2022-12-22T11:52:21.091Z,8.80
2022-12-22T11:55:25.145Z,8.90
2022-12-22T11:58:07.411Z,8.90
2022-12-22T12:01:13.058Z,7.90
2022-12-22T12:04:02.724Z,7.30
2022-12-22T12:06:57.159Z,8.40
2022-12-22T12:09:44.945Z,7.80
2022-12-22T12:12:20.769Z,8.20
2022-12-22T12:14:59.918Z,8.30
2022-12-22T12:17:48.027Z,8.40
2022-12-22T12:20:47.540Z,8.80
2022-12-22T12:23:30.895Z,7.80
2022-12-22T12:26:06.356Z,7.30
2022-12-22T12:28:46.531Z,5.30
2022-12-22T12:31:25.975Z,3.80
2022-12-22T12:34:03.313Z,4.40
2022-12-22T12:36:42.871Z,3.50
2022-12-22T12:39:21.131Z,3.40
2022-12-22T12:42:02.074Z,3.10
2022-12-22T12:44:36.779Z,3.30
2022-12-22T12:47:29.037Z,3.90
2022-12-22T12:50:08.549Z,1.30
2022-12-22T12:53:06.944Z,2.30
2022-12-22T12:55:54.497Z,1.00
2022-12-22T12:58:54.200Z,1.00
2022-12-22T13:01:57.643Z,1.20
2022-12-22T13:05:16.050Z,1.30
2022-12-22T13:08:17.080Z,1.70
2022-12-22T13:12:01.701Z,1.70
2022-12-22T13:14:50.524Z,1.60
2022-12-22T13:17:42.448Z,1.40
2022-12-22T13:20:18.641Z,1.00
2022-12-22T13:22:49.186Z,1.40
2022-12-22T13:25:19.793Z,1.00
2022-12-22T13:27:50.877Z,1.00
2022-12-22T13:30:23.176Z,1.00
2022-12-22T13:32:56.141Z,1.00
2022-12-22T13:35:32.774Z,1.00
2022-12-22T13:38:03.769Z,1.00
2022-12-22T13:40:35.172Z,1.10
2022-12-22T13:43:08.069Z,1.60
2022-12-22T13:45:42.539Z,2.20
2022-12-22T13:48:18.630Z,1.50
2022-12-22T13:50:51.267Z,2.20
2022-12-22T13:53:58.759Z,2.50
2022-12-22T13:56:20.388Z,3.30
2022-12-22T13:58:54.669Z,4.20
2022-12-22T14:01:26.593Z,4.10
2022-12-22T14:04:03.984Z,4.70
2022-12-22T14:06:37.099Z,5.20
2022-12-22T14:09:14.670Z,6.10
2022-12-22T14:11:51.024Z,6.90
2022-12-22T14:14:26.195Z,6.80
2022-12-22T14:16:58.755Z,6.50
2022-12-22T14:19:35.504Z,5.90
2022-12-22T14:22:10.231Z,6.20
2022-12-22T14:24:46.147Z,5.20
2022-12-22T14:27:24.046Z,4.80
2022-12-22T14:29:54.118Z,5.20
2022-12-22T14:32:40.435Z,4.20
2022-12-22T14:35:34.222Z,3.90
2022-12-22T14:38:20.296Z,3.40
2022-12-22T14:40:56.428Z,3.70
2022-12-22T14:43:31.071Z,3.50
2022-12-22T14:46:06.635Z,3.30
2022-12-22T14:48:40.781Z,2.40
2022-12-22T14:51:13.180Z,2.00
2022-12-22T14:53:48.395Z,1.40
2022-12-22T14:56:20.298Z,2.00
2022-12-22T14:58:51.887Z,1.40
2022-12-22T15:01:25.218Z,2.10
2022-12-22T15:04:04.552Z,1.90
2022-12-22T15:06:43.764Z,1.40
2022-12-22T15:10:13.268Z,1.80
2022-12-22T15:12:21.524Z,2.10
2022-12-22T15:14:51.669Z,2.50
2022-12-22T15:17:25.530Z,2.30
2022-12-22T15:20:00.725Z,2.70
2022-12-22T15:22:33.819Z,2.60
2022-12-22T15:25:03.678Z,2.70
2022-12-22T15:27:33.589Z,2.60
2022-12-22T15:30:03.422Z,3.70
2022-12-22T15:32:37.851Z,3.30
2022-12-22T15:35:18.050Z,3.10
2022-12-22T15:37:50.488Z,3.20
2022-12-22T15:40:22.883Z,2.50
2022-12-22T15:42:53.449Z,2.90
2022-12-22T15:45:24.782Z,2.80
2022-12-22T15:47:57.284Z,2.60
2022-12-22T15:50:38.263Z,2.90
2022-12-22T15:53:17.073Z,3.70
2022-12-22T15:55:48.717Z,3.70
2022-12-22T15:58:21.254Z,3.90
2022-12-22T16:00:51.205Z,4.50
2022-12-22T16:03:22.436Z,4.00
2022-12-22T16:05:52.934Z,4.60
2022-12-22T16:08:31.018Z,4.30
2022-12-22T16:11:01.399Z,4.70
2022-12-22T16:13:31.227Z,5.00
2022-12-22T16:16:02.045Z,6.00
2022-12-22T16:18:32.108Z,6.50
2022-12-22T16:21:08.269Z,7.60
2022-12-22T16:23:40.608Z,7.20
2022-12-22T16:26:10.456Z,7.70
2022-12-22T16:28:40.340Z,8.20
2022-12-22T16:31:19.205Z,8.20
2022-12-22T16:33:49.131Z,8.10
2022-12-22T16:36:18.980Z,8.20
2022-12-22T16:38:51.368Z,7.80
2022-12-22T16:41:24.593Z,8.00
2022-12-22T16:46:40.860Z,8.00
2022-12-22T16:49:12.156Z,7.90
2022-12-22T16:51:49.723Z,8.20
2022-12-22T16:54:22.127Z,9.50
2022-12-22T16:56:52.284Z,10.20
2022-12-22T16:59:22.790Z,10.10
2022-12-22T17:01:55.339Z,11.30
2022-12-22T17:04:27.702Z,11.30
2022-12-22T17:07:02.163Z,10.90
2022-12-22T17:09:45.555Z,10.80
2022-12-22T17:12:20.626Z,10.90
2022-12-22T17:14:52.260Z,10.90
2022-12-22T17:17:31.880Z,10.80
2022-12-22T17:20:04.017Z,10.30
2022-12-22T17:22:36.263Z,10.50
2022-12-22T17:25:09.723Z,10.00
2022-12-22T17:27:39.566Z,9.90
2022-12-22T17:30:18.451Z,9.90
2022-12-22T17:32:48.888Z,9.10
2022-12-22T17:35:20.285Z,9.20
2022-12-22T17:37:51.276Z,9.00
2022-12-22T17:40:26.942Z,8.90
2022-12-22T17:42:56.848Z,8.50
2022-12-22T17:45:27.480Z,8.90
2022-12-22T17:47:57.332Z,8.90
2022-12-22T17:50:27.147Z,9.30
2022-12-22T17:52:57.956Z,9.00
2022-12-22T17:56:06.540Z,8.90
2022-12-22T17:58:21.901Z,9.00
2022-12-22T18:00:51.679Z,8.90
2022-12-22T18:03:21.593Z,9.20
2022-12-22T18:05:52.579Z,9.10
2022-12-22T18:08:23.749Z,9.80
2022-12-22T18:10:56.113Z,8.90
2022-12-22T18:13:27.005Z,9.00
2022-12-22T18:15:57.405Z,9.50
2022-12-22T18:18:27.308Z,9.60
2022-12-22T18:21:07.221Z,9.90
2022-12-22T18:23:47.741Z,9.70
2022-12-22T18:26:25.332Z,10.40
2022-12-22T18:28:56.266Z,10.80
2022-12-22T18:31:26.981Z,11.40
2022-12-22T18:33:56.909Z,11.50
2022-12-22T18:36:32.558Z,11.90
2022-12-22T18:39:04.270Z,12.30
2022-12-22T18:41:37.446Z,12.20
2022-12-22T18:44:07.470Z,11.90
2022-12-22T18:46:37.282Z,12.00
2022-12-22T18:49:07.089Z,12.30
2022-12-22T18:51:36.962Z,12.10
2022-12-22T18:54:16.981Z,12.40
2022-12-22T18:56:52.396Z,13.30
2022-12-22T18:59:29.756Z,13.70
2022-12-22T19:02:15.126Z,13.90
2022-12-22T19:04:44.995Z,13.80
2022-12-22T19:07:18.364Z,13.40
2022-12-22T19:09:48.684Z,13.70
2022-12-22T19:12:25.279Z,14.20
2022-12-22T19:14:57.860Z,13.60
2022-12-22T19:17:29.629Z,13.70
2022-12-22T19:19:59.907Z,13.10
2022-12-22T19:22:29.739Z,13.30
2022-12-22T19:25:01.838Z,12.80
2022-12-22T19:27:34.343Z,13.10
2022-12-22T19:30:05.042Z,14.20
2022-12-22T19:32:40.191Z,13.80
2022-12-22T19:35:17.754Z,15.10
2022-12-22T19:37:48.283Z,15.20
2022-12-22T19:40:20.041Z,15.40
2022-12-22T19:42:55.038Z,15.20
2022-12-22T19:45:28.264Z,15.20
2022-12-22T19:47:59.752Z,15.50
2022-12-22T19:50:31.712Z,16.10
2022-12-22T19:53:02.059Z,16.40
2022-12-22T19:55:35.848Z,17.80
2022-12-22T19:58:08.247Z,18.30
2022-12-22T20:00:38.302Z,19.50
2022-12-22T20:03:08.755Z,20.10
2022-12-22T20:05:38.655Z,20.30
2022-12-22T20:08:08.575Z,20.10
2022-12-22T20:10:39.684Z,20.10
2022-12-22T20:13:17.648Z,20.40
2022-12-22T20:15:48.220Z,20.40
2022-12-22T20:18:20.900Z,21.60
2022-12-22T20:20:57.721Z,22.20
2022-12-22T20:23:28.732Z,23.30
2022-12-22T20:26:02.672Z,24.00
2022-12-22T20:28:37.603Z,24.40
2022-12-22T20:31:08.479Z,24.60
2022-12-22T20:33:38.671Z,24.50
2022-12-22T20:36:19.523Z,24.40
2022-12-22T20:38:52.143Z,24.90
2022-12-22T20:41:23.381Z,25.20
2022-12-22T20:44:20.036Z,26.40
2022-12-22T20:46:49.869Z,27.40
2022-12-22T20:49:19.724Z,27.40
2022-12-22T20:51:49.621Z,29.30
2022-12-22T20:54:19.510Z,30.00
2022-12-22T20:56:49.352Z,30.90
2022-12-22T20:59:26.035Z,30.40
2022-12-22T21:01:56.308Z,29.60
2022-12-22T21:04:26.461Z,29.70
2022-12-22T21:06:58.543Z,29.50
2022-12-22T21:09:28.840Z,28.80
2022-12-22T21:11:58.797Z,29.50
2022-12-22T21:14:31.170Z,27.80
2022-12-22T21:17:01.042Z,27.00
2022-12-22T21:19:31.044Z,26.60
2022-12-22T21:22:00.787Z,26.10
2022-12-22T21:24:30.522Z,26.10
2022-12-22T21:27:00.428Z,25.40
2022-12-22T21:29:32.941Z,24.90
2022-12-22T21:32:02.759Z,24.90
2022-12-22T21:34:32.681Z,25.40
2022-12-22T21:37:05.189Z,26.60
2022-12-22T21:39:42.506Z,26.30
2022-12-22T21:42:16.873Z,26.50
2022-12-22T21:44:50.612Z,26.40
2022-12-22T21:47:22.255Z,26.20
2022-12-22T21:49:52.088Z,26.90
2022-12-22T21:52:21.854Z,27.80
2022-12-22T21:54:51.603Z,28.00
2022-12-22T21:57:21.407Z,29.40
2022-12-22T21:59:53.756Z,32.30
2022-12-22T22:02:23.667Z,33.80
2022-12-22T22:04:55.258Z,34.60
2022-12-22T22:07:25.399Z,36.70
2022-12-22T22:09:55.281Z,38.10
2022-12-22T22:12:37.966Z,39.70
2022-12-22T22:15:11.443Z,40.20
2022-12-22T22:17:41.449Z,41.60
2022-12-22T22:20:16.785Z,42.20
2022-12-22T22:22:47.370Z,43.10
2022-12-22T22:25:19.180Z,43.10
2022-12-22T22:27:49.387Z,43.90
2022-12-22T22:30:24.824Z,44.50
2022-12-22T22:32:55.290Z,45.60
2022-12-22T22:35:26.244Z,47.00
2022-12-22T22:37:56.164Z,47.30
2022-12-22T22:40:26.663Z,47.90
2022-12-22T22:43:03.037Z,48.30
2022-12-22T22:45:35.365Z,48.70
2022-12-22T22:48:10.652Z,49.00
2022-12-22T22:50:43.229Z,49.60
2022-12-22T22:53:13.034Z,49.70
2022-12-22T22:55:42.931Z,49.60
2022-12-22T22:58:13.355Z,49.70
2022-12-22T23:00:45.717Z,49.60
2022-12-22T23:03:16.616Z,49.10
2022-12-22T23:05:46.617Z,49.60
2022-12-22T23:08:16.454Z,49.00
2022-12-22T23:10:50.972Z,49.30
2022-12-22T23:13:20.581Z,49.70
2022-12-22T23:15:59.118Z,49.80
2022-12-22T23:18:29.709Z,49.60
2022-12-22T23:21:00.583Z,49.80
2022-12-22T23:23:30.860Z,50.30
2022-12-22T23:26:00.826Z,50.10
2022-12-22T23:28:30.621Z,48.40
2022-12-22T23:31:03.096Z,47.30
2022-12-22T23:33:34.335Z,46.20
2022-12-22T23:36:04.169Z,46.80
2022-12-22T23:38:34.367Z,46.00
2022-12-22T23:41:05.901Z,46.00
2022-12-22T23:43:39.336Z,45.70
2022-12-22T23:46:16.416Z,44.80
2022-12-22T23:48:46.407Z,44.00
2022-12-22T23:51:16.180Z,43.40
2022-12-22T23:53:45.948Z,43.80
2022-12-22T23:56:15.721Z,42.60
2022-12-22T23:58:51.015Z,42.30
